Time;durP1;ratioP1;P1;durP2;ratioP2;P2;SDS_P1;SDS_P2;PMS_P1;PMS_P2;Temp;Humidity;BMP_temperature;BMP_pressure;BME280_temperature;BME280_humidity;BME280_pressure;Samples;Min_cycle;Max_cycle;Signal;HPM_P1;HPM_P2
2023/03/06 00:01:33;;;;;;;;;;;;;;;10.72;42.35;98114.69;4955591;28;19965;-77
2023/03/06 00:03:58;;;;;;;;;;;;;;;10.72;42.35;98113.84;4971141;28;20001;-77
2023/03/06 00:06:23;;;;;;;;;;;;;;;10.71;42.59;98114.81;4970849;28;19961;-77
2023/03/06 00:08:49;;;;;;;;;;;;;;;10.70;42.55;98108.75;5005497;28;19917;-77
2023/03/06 00:11:14;;;;;;;;;;;;;;;10.71;42.55;98114.81;5012143;28;19917;-77
2023/03/06 00:13:39;;;;;;;;;;;;;;;10.70;42.72;98107.94;5012490;28;19918;-77
2023/03/06 00:16:05;;;;;;;;;;;;;;;10.67;42.65;98111.63;5011623;28;19924;-77
2023/03/06 00:18:31;;;;;;;;;;;;;;;10.66;42.78;98117.81;5010950;28;19917;-77
2023/03/06 00:20:56;;;;;;;;;;;;;;;10.61;42.65;98120.81;4994718;28;19926;-77
2023/03/06 00:23:22;;;;;;;;;;;;;;;10.57;43.14;98118.59;5011271;28;19917;-77
2023/03/06 00:25:47;;;;;;;;;;;;;;;10.50;43.20;98113.91;5016067;28;19972;-77
2023/03/06 00:28:14;;;;;;;;;;;;;;;10.48;43.45;98115.00;5015985;28;20312;-77
2023/03/06 00:30:39;;;;;;;;;;;;;;;10.42;43.51;98123.34;5016080;28;19918;-77
2023/03/06 00:33:05;;;;;;;;;;;;;;;10.36;43.60;98124.72;5015620;28;19918;-78
2023/03/06 00:35:30;;;;;;;;;;;;;;;10.32;43.57;98131.09;5018455;28;20407;-78
2023/03/06 00:37:58;;;;;;;;;;;;;;;10.25;43.70;98127.38;5018616;28;20352;-78
2023/03/06 00:40:23;;;;;;;;;;;;;;;10.19;43.90;98125.28;5002037;28;19917;-78
2023/03/06 00:42:49;;;;;;;;;;;;;;;10.16;43.86;98125.53;5035506;28;19917;-78
2023/03/06 00:45:14;;;;;;;;;;;;;;;10.10;44.03;98129.47;5017887;28;19921;-78
2023/03/06 00:47:39;;;;;;;;;;;;;;;10.07;43.91;98135.78;5017486;28;19925;-78
2023/03/06 00:50:05;;;;;;;;;;;;;;;10.02;44.10;98135.34;5035485;28;19917;-78
2023/03/06 00:52:30;;;;;;;;;;;;;;;9.96;44.23;98130.63;5017486;28;19967;-78
2023/03/06 00:54:56;;;;;;;;;;;;;;;9.89;44.45;98135.53;5000857;28;20080;-78
2023/03/06 00:57:21;;;;;;;;;;;;;;;9.84;44.46;98135.09;5000579;28;19917;-78
2023/03/06 00:59:46;;;;;;;;;;;;;;;9.77;44.65;98134.78;5000681;28;19928;-78
2023/03/06 01:02:12;;;;;;;;;;;;;;;9.74;44.79;98131.56;5034899;28;20023;-78
2023/03/06 01:04:37;;;;;;;;;;;;;;;9.66;44.78;98134.84;5017016;28;19918;-78
2023/03/06 01:07:02;;;;;;;;;;;;;;;9.61;45.03;98136.97;5017064;28;19917;-78
2023/03/06 01:09:28;;;;;;;;;;;;;;;9.57;45.07;98131.19;5017595;28;19967;-78
2023/03/06 01:11:53;;;;;;;;;;;;;;;9.54;45.06;98136.66;5000870;28;19951;-78
2023/03/06 01:14:19;;;;;;;;;;;;;;;9.50;45.27;98140.44;5034878;28;19917;-77
2023/03/06 01:16:44;;;;;;;;;;;;;;;9.47;45.40;98143.34;5000792;28;19924;-78
2023/03/06 01:19:10;;;;;;;;;;;;;;;9.43;45.32;98135.91;5007510;28;19975;-78
2023/03/06 01:21:35;;;;;;;;;;;;;;;9.40;45.34;98136.97;5014253;28;20388;-78
2023/03/06 01:24:00;;;;;;;;;;;;;;;9.37;45.53;98132.81;5000769;28;19918;-77
2023/03/06 01:26:26;;;;;;;;;;;;;;;9.35;45.47;98133.91;5017066;28;19928;-78
2023/03/06 01:28:51;;;;;;;;;;;;;;;9.32;45.62;98126.34;5034656;28;19995;-78
2023/03/06 01:31:16;;;;;;;;;;;;;;;9.31;45.79;98129.88;5016854;28;19927;-78
2023/03/06 01:33:41;;;;;;;;;;;;;;;9.29;45.71;98127.41;5016732;28;20015;-78
2023/03/06 01:36:07;;;;;;;;;;;;;;;9.29;45.77;98129.19;5034185;28;19921;-78
2023/03/06 01:38:33;;;;;;;;;;;;;;;9.29;45.63;98132.59;5016872;28;19924;-78
2023/03/06 01:40:58;;;;;;;;;;;;;;;9.32;45.53;98139.34;5000531;28;19917;-78
2023/03/06 01:43:27;;;;;;;;;;;;;;;9.33;45.66;98134.03;5000432;28;19917;-78
2023/03/06 01:46:11;;;;;;;;;;;;;;;9.32;45.66;98132.38;5016276;28;20052;-78
2023/03/06 01:48:36;;;;;;;;;;;;;;;9.35;45.74;98133.91;5034316;28;20597;-78
2023/03/06 01:51:01;;;;;;;;;;;;;;;9.37;45.58;98135.41;5017057;28;19964;-78
2023/03/06 01:53:27;;;;;;;;;;;;;;;9.41;45.51;98133.41;5000097;28;20008;-78
2023/03/06 01:55:52;;;;;;;;;;;;;;;9.43;45.35;98136.72;5000043;28;19960;-78
2023/03/06 01:58:18;;;;;;;;;;;;;;;9.45;45.63;98140.00;5000123;28;19918;-78
2023/03/06 02:00:43;;;;;;;;;;;;;;;9.48;45.49;98138.94;5016783;28;19932;-77
2023/03/06 02:03:09;;;;;;;;;;;;;;;9.49;45.30;98141.44;5016737;28;20308;-78
2023/03/06 02:05:35;;;;;;;;;;;;;;;9.50;45.44;98140.44;5016157;28;19917;-78
2023/03/06 02:08:00;;;;;;;;;;;;;;;9.53;45.17;98137.59;5016418;28;20300;-78
2023/03/06 02:10:26;;;;;;;;;;;;;;;9.55;45.33;98140.09;5016349;28;20052;-78
2023/03/06 02:12:51;;;;;;;;;;;;;;;9.55;45.30;98138.31;5016412;28;19944;-77
2023/03/06 02:15:17;;;;;;;;;;;;;;;9.57;45.11;98141.63;4999913;28;20351;-78
2023/03/06 02:17:43;;;;;;;;;;;;;;;9.57;45.08;98143.41;5016244;28;20402;-78
2023/03/06 02:20:08;;;;;;;;;;;;;;;9.57;45.02;98157.25;5016394;28;19960;-78
2023/03/06 02:22:36;;;;;;;;;;;;;;;9.56;45.24;98155.59;5034538;28;20349;-78
2023/03/06 02:25:08;;;;;;;;;;;;;;;9.55;45.30;98156.56;4999619;28;19925;-77
2023/03/06 02:27:34;;;;;;;;;;;;;;;9.54;45.37;98165.31;5015953;28;19959;-77
2023/03/06 02:29:59;;;;;;;;;;;;;;;9.54;45.14;98165.31;5016300;28;19964;-78
2023/03/06 02:32:24;;;;;;;;;;;;;;;9.56;44.96;98166.00;5033811;28;20435;-78
2023/03/06 02:34:56;;;;;;;;;;;;;;;9.56;45.09;98165.19;5015692;28;20439;-78
2023/03/06 02:37:22;;;;;;;;;;;;;;;9.56;45.03;98168.63;5015956;28;20442;-78
2023/03/06 02:39:48;;;;;;;;;;;;;;;9.55;45.06;98174.81;4999425;28;19921;-78
2023/03/06 02:42:21;;;;;;;;;;;;;;;9.55;45.17;98173.94;5015792;28;20316;-78
2023/03/06 02:44:47;;;;;;;;;;;;;;;9.54;45.00;98175.75;4999038;28;19925;-78
2023/03/06 02:47:12;;;;;;;;;;;;;;;9.53;44.90;98183.69;5023514;28;19921;-80
2023/03/06 02:49:37;;;;;;;;;;;;;;;9.53;44.88;98188.91;4989664;28;20342;-79
2023/03/06 02:52:03;;;;;;;;;;;;;;;9.51;45.08;98189.00;4987833;28;19936;-79
2023/03/06 02:54:28;;;;;;;;;;;;;;;9.50;44.75;98186.53;4988616;28;19960;-80
2023/03/06 02:56:54;;;;;;;;;;;;;;;9.48;44.70;98184.06;5003377;28;20454;-79
2023/03/06 02:59:19;;;;;;;;;;;;;;;9.47;44.76;98181.56;5022264;28;19921;-79
2023/03/06 03:01:46;;;;;;;;;;;;;;;9.45;44.66;98184.28;5004155;28;19964;-78
2023/03/06 03:04:11;;;;;;;;;;;;;;;9.44;44.62;98187.03;5002473;28;19917;-79
2023/03/06 03:06:37;;;;;;;;;;;;;;;9.43;44.56;98183.59;4988154;28;20036;-79
2023/03/06 03:09:02;;;;;;;;;;;;;;;9.41;44.58;98188.94;4987125;28;19917;-79
2023/03/06 03:11:27;;;;;;;;;;;;;;;9.41;44.66;98201.97;4986818;28;20608;-79
2023/03/06 03:13:53;;;;;;;;;;;;;;;9.40;44.60;98202.09;4988533;28;19917;-78
2023/03/06 03:16:18;;;;;;;;;;;;;;;9.39;44.73;98196.06;5020813;28;19922;-80
2023/03/06 03:18:46;;;;;;;;;;;;;;;9.40;44.59;98202.09;4986453;28;19917;-78
2023/03/06 03:21:12;;;;;;;;;;;;;;;9.38;44.65;98201.38;5005569;28;19940;-77
2023/03/06 03:23:37;;;;;;;;;;;;;;;9.33;44.53;98203.50;4998848;28;20396;-77
2023/03/06 03:26:06;;;;;;;;;;;;;;;9.28;44.79;98214.28;5015273;28;19917;-77
2023/03/06 03:28:32;;;;;;;;;;;;;;;9.26;44.51;98215.38;4998939;28;19917;-77
2023/03/06 03:31:00;;;;;;;;;;;;;;;9.22;44.45;98210.41;5033156;28;19923;-77
2023/03/06 03:33:26;;;;;;;;;;;;;;;9.18;44.60;98210.78;5015192;28;19921;-77
2023/03/06 03:35:57;;;;;;;;;;;;;;;9.14;44.52;98204.13;4998864;28;20358;-77
2023/03/06 03:38:23;;;;;;;;;;;;;;;9.09;44.89;98209.72;4998510;28;19917;-78
2023/03/06 03:40:48;;;;;;;;;;;;;;;9.05;45.03;98210.91;5014988;28;19924;-78
2023/03/06 03:43:13;;;;;;;;;;;;;;;9.01;44.81;98218.16;5032652;28;19972;-78
2023/03/06 03:45:39;;;;;;;;;;;;;;;8.98;45.08;98204.53;5014982;28;19917;-78
2023/03/06 03:48:04;;;;;;;;;;;;;;;8.93;44.89;98212.69;5015210;28;19983;-78
2023/03/06 03:50:29;;;;;;;;;;;;;;;8.87;45.19;98203.59;5032686;28;20303;-78
2023/03/06 03:52:55;;;;;;;;;;;;;;;8.84;45.45;98216.03;5032701;28;20434;-78
2023/03/06 03:55:20;;;;;;;;;;;;;;;8.78;45.72;98209.50;5032290;28;19918;-78
2023/03/06 03:57:45;;;;;;;;;;;;;;;8.74;45.78;98212.47;4998342;28;19917;-78
2023/03/06 04:00:15;;;;;;;;;;;;;;;8.69;45.99;98208.44;5001325;28;19924;-78
2023/03/06 04:02:40;;;;;;;;;;;;;;;8.65;45.87;98216.59;5002929;28;19933;-77
2023/03/06 04:05:06;;;;;;;;;;;;;;;8.59;45.64;98209.28;5019340;28;19921;-77
2023/03/06 04:07:31;;;;;;;;;;;;;;;8.54;45.90;98213.97;5002024;28;20004;-78
2023/03/06 04:09:56;;;;;;;;;;;;;;;8.50;45.95;98216.81;5002432;28;19955;-77
2023/03/06 04:12:22;;;;;;;;;;;;;;;8.45;46.05;98221.53;5035315;28;20016;-77
2023/03/06 04:14:47;;;;;;;;;;;;;;;8.44;45.96;98229.47;5019024;28;19927;-78
2023/03/06 04:17:12;;;;;;;;;;;;;;;8.40;46.14;98236.66;5018681;28;19940;-78
2023/03/06 04:19:38;;;;;;;;;;;;;;;8.36;46.26;98232.59;5018080;28;20019;-78
2023/03/06 04:22:03;;;;;;;;;;;;;;;8.33;46.28;98236.28;5002009;28;19987;-78
2023/03/06 04:24:28;;;;;;;;;;;;;;;8.31;46.33;98235.56;5002282;28;19917;-78
2023/03/06 04:26:53;;;;;;;;;;;;;;;8.31;46.54;98234.72;5018013;28;19917;-77
2023/03/06 04:29:19;;;;;;;;;;;;;;;8.27;46.58;98233.28;5018197;28;20395;-83
2023/03/06 04:31:44;;;;;;;;;;;;;;;8.37;55.27;98239.47;5036018;28;19967;-84
2023/03/06 04:34:09;;;;;;;;;;;;;;;8.41;59.14;98240.91;5001541;28;20365;-85
2023/03/06 04:36:35;;;;;;;;;;;;;;;8.49;59.71;98246.41;5018532;28;20324;-88
2023/03/06 04:39:00;;;;;;;;;;;;;;;8.48;55.55;98246.50;5018437;28;19917;-81
2023/03/06 04:41:25;;;;;;;;;;;;;;;8.47;57.26;98245.66;5001689;28;20009;-81
2023/03/06 04:43:51;;;;;;;;;;;;;;;8.49;58.86;98251.59;5018176;28;19917;-84
2023/03/06 04:46:16;;;;;;;;;;;;;;;9.16;73.26;98256.94;5037007;28;20400;-80
2023/03/06 04:48:41;;;;;;;;;;;;;;;9.06;61.79;98259.41;5018277;28;19921;-81
2023/03/06 04:51:07;;;;;;;;;;;;;;;9.03;62.75;98260.50;5018203;28;20406;-79
2023/03/06 04:53:32;;;;;;;;;;;;;;;8.88;58.28;98257.28;5019721;28;19952;-79
2023/03/06 04:55:57;;;;;;;;;;;;;;;8.74;57.23;98257.53;5035736;28;19960;-79
2023/03/06 04:58:23;;;;;;;;;;;;;;;8.61;56.16;98267.22;5018422;28;19924;-79
2023/03/06 05:00:48;;;;;;;;;;;;;;;8.66;58.54;98267.69;5016894;28;20311;-83
2023/03/06 05:03:13;;;;;;;;;;;;;;;8.58;56.58;98270.06;5018373;28;19917;-77
2023/03/06 05:05:39;;;;;;;;;;;;;;;8.59;56.52;98274.31;5000036;28;19917;-77
2023/03/06 05:08:04;;;;;;;;;;;;;;;8.77;55.14;98283.31;5017043;28;19921;-78
2023/03/06 05:10:30;;;;;;;;;;;;;;;8.94;53.90;98286.41;5034311;28;19967;-78
2023/03/06 05:12:55;;;;;;;;;;;;;;;9.19;52.99;98286.19;5017609;28;19918;-78
2023/03/06 05:15:20;;;;;;;;;;;;;;;9.65;51.17;98293.94;5035248;28;19924;-78
2023/03/06 05:17:46;;;;;;;;;;;;;;;10.12;49.39;98305.75;5001168;28;19917;-78
2023/03/06 05:20:12;;;;;;;;;;;;;;;10.55;47.84;98297.97;5000599;28;20453;-78
2023/03/06 05:22:38;;;;;;;;;;;;;;;11.00;46.28;98308.13;5017145;28;19928;-78
2023/03/06 05:25:03;;;;;;;;;;;;;;;11.49;45.22;98303.09;5033850;28;19921;-79
2023/03/06 05:27:29;;;;;;;;;;;;;;;11.92;43.72;98310.66;4999970;28;19920;-79
2023/03/06 05:29:54;;;;;;;;;;;;;;;12.40;41.82;98319.47;5017102;28;19917;-79
2023/03/06 05:32:20;;;;;;;;;;;;;;;12.92;41.09;98318.25;5015269;28;20380;-79
2023/03/06 05:34:45;;;;;;;;;;;;;;;13.46;40.67;98327.19;5000270;28;19928;-79
2023/03/06 05:37:12;;;;;;;;;;;;;;;13.97;39.02;98322.34;5017040;28;19921;-78
2023/03/06 05:39:37;;;;;;;;;;;;;;;14.51;37.72;98329.38;5034602;28;19956;-78
2023/03/06 05:42:02;;;;;;;;;;;;;;;14.95;36.31;98332.03;5016582;28;19999;-78
2023/03/06 05:44:31;;;;;;;;;;;;;;;15.36;35.14;98325.19;5017281;28;19917;-78
2023/03/06 05:46:57;;;;;;;;;;;;;;;15.86;34.09;98330.63;5017220;28;19944;-78
2023/03/06 05:49:22;;;;;;;;;;;;;;;16.22;33.24;98330.38;5017232;28;19917;-77
2023/03/06 05:51:47;;;;;;;;;;;;;;;16.45;32.51;98341.09;5016557;28;19975;-77
2023/03/06 05:54:13;;;;;;;;;;;;;;;16.76;32.06;98332.50;5016613;28;19923;-78
2023/03/06 05:56:38;;;;;;;;;;;;;;;17.16;31.34;98336.94;5033657;28;19917;-79
2023/03/06 05:59:03;;;;;;;;;;;;;;;17.58;30.01;98339.44;5033662;28;19917;-80
2023/03/06 06:01:29;;;;;;;;;;;;;;;17.91;29.34;98345.38;5000517;28;20016;-79
2023/03/06 06:03:54;;;;;;;;;;;;;;;18.26;28.42;98346.66;5015756;28;19952;-80
2023/03/06 06:06:19;;;;;;;;;;;;;;;18.63;27.87;98344.25;5015976;28;19917;-81
2023/03/06 06:08:45;;;;;;;;;;;;;;;19.00;27.41;98339.13;5016239;28;20422;-81
2023/03/06 06:11:10;;;;;;;;;;;;;;;19.30;26.85;98340.78;5033133;28;19921;-80
2023/03/06 06:13:36;;;;;;;;;;;;;;;19.66;26.37;98333.94;5033948;28;19917;-80
2023/03/06 06:16:08;;;;;;;;;;;;;;;19.97;25.86;98341.66;5000036;28;19924;-81
2023/03/06 06:18:33;;;;;;;;;;;;;;;20.26;25.16;98339.91;4999901;28;19917;-81
2023/03/06 06:20:58;;;;;;;;;;;;;;;20.53;24.62;98340.16;5015989;28;20384;-81
2023/03/06 06:23:24;;;;;;;;;;;;;;;20.80;23.78;98351.81;5009073;28;20376;-82
2023/03/06 06:25:50;;;;;;;;;;;;;;;21.08;23.60;98358.94;5004289;28;19924;-80
2023/03/06 06:28:15;;;;;;;;;;;;;;;21.35;23.13;98364.41;4996976;28;19918;-80
2023/03/06 06:30:41;;;;;;;;;;;;;;;21.63;22.62;98367.88;4980515;28;19924;-81
2023/03/06 06:33:06;;;;;;;;;;;;;;;21.88;22.16;98370.00;4980251;28;19925;-81
2023/03/06 06:35:34;;;;;;;;;;;;;;;22.16;21.95;98371.75;4980180;28;20012;-80
2023/03/06 06:37:59;;;;;;;;;;;;;;;22.55;27.94;98371.03;5018253;28;19921;-91
2023/03/06 06:40:26;;;;;;;;;;;;;;;22.94;33.12;98380.06;5006717;28;19917;-80
2023/03/06 06:42:51;;;;;;;;;;;;;;;23.40;32.34;98380.19;5015907;28;19917;-80
2023/03/06 06:45:17;;;;;;;;;;;;;;;23.75;31.59;98374.56;4999031;28;19976;-80
2023/03/06 06:47:42;;;;;;;;;;;;;;;24.13;30.96;98377.28;5014966;28;19947;-81
2023/03/06 06:50:10;;;;;;;;;;;;;;;24.43;27.18;98381.22;5016352;28;19922;-81
2023/03/06 06:52:35;;;;;;;;;;;;;;;24.69;24.15;98389.06;4998773;28;19949;-81
2023/03/06 06:55:01;;;;;;;;;;;;;;;25.00;22.07;98391.88;4999042;28;20407;-80
2023/03/06 06:57:26;;;;;;;;;;;;;;;25.28;20.09;98383.44;5033007;28;19932;-77
2023/03/06 06:59:51;;;;;;;;;;;;;;;25.48;19.22;98388.59;5017377;28;19939;-88
2023/03/06 07:02:17;;;;;;;;;;;;;;;25.77;23.05;98397.69;5015966;28;20363;-79
2023/03/06 07:04:42;;;;;;;;;;;;;;;26.20;23.58;98390.59;5015623;28;19975;-84
2023/03/06 07:07:08;;;;;;;;;;;;;;;26.62;23.20;98393.28;5015595;28;19917;-82
2023/03/06 07:09:33;;;;;;;;;;;;;;;26.98;21.32;98398.72;4998948;28;19917;-81
2023/03/06 07:11:58;;;;;;;;;;;;;;;27.37;19.22;98399.09;5032760;28;19966;-81
2023/03/06 07:14:23;;;;;;;;;;;;;;;27.62;18.05;98402.31;5033284;28;19977;-82
2023/03/06 07:16:49;;;;;;;;;;;;;;;27.98;17.41;98403.06;4999974;28;19968;-84
2023/03/06 07:19:14;;;;;;;;;;;;;;;28.37;16.26;98390.91;5034494;28;19964;-80
2023/03/06 07:21:39;;;;;;;;;;;;;;;28.61;15.85;98397.81;5032863;28;20012;-81
2023/03/06 07:24:05;;;;;;;;;;;;;;;28.80;15.98;98400.28;5015643;28;19917;-83
2023/03/06 07:26:30;;;;;;;;;;;;;;;28.85;15.76;98395.78;5033525;28;19917;-84
2023/03/06 07:28:55;;;;;;;;;;;;;;;28.84;15.63;98399.53;5004571;28;19901;-87
2023/03/06 07:31:21;;;;;;;;;;;;;;;28.60;15.51;98401.53;5001372;28;20355;-82
2023/03/06 07:33:47;;;;;;;;;;;;;;;28.45;15.59;98402.06;4926400;28;1922931;-83
2023/03/06 07:36:13;;;;;;;;;;;;;;;28.40;15.59;98402.00;4979374;28;19928;-85
2023/03/06 07:38:38;;;;;;;;;;;;;;;28.32;15.36;98397.81;4998359;28;20000;-86
2023/03/06 07:41:04;;;;;;;;;;;;;;;28.18;14.83;98398.34;4999102;28;19996;-86
2023/03/06 07:43:29;;;;;;;;;;;;;;;27.83;15.51;98404.63;4995647;28;19965;-86
2023/03/06 07:45:58;;;;;;;;;;;;;;;27.89;14.82;98417.09;4997119;28;19945;-85
2023/03/06 07:48:25;;;;;;;;;;;;;;;27.51;15.71;98415.75;5037789;28;19928;-85
2023/03/06 07:51:00;;;;;;;;;;;;;;;27.57;15.57;98415.63;4999171;28;19921;-81
2023/03/06 07:53:26;;;;;;;;;;;;;;;27.55;15.57;98416.94;5015771;28;20021;-80
2023/03/06 07:55:51;;;;;;;;;;;;;;;27.42;16.37;98417.97;4998876;28;20013;-80
2023/03/06 07:58:17;;;;;;;;;;;;;;;27.69;16.20;98420.16;4998744;28;19921;-79
2023/03/06 08:00:43;;;;;;;;;;;;;;;27.64;15.86;98420.84;5032774;28;19967;-77
2023/03/06 08:03:09;;;;;;;;;;;;;;;27.77;16.17;98417.94;4998184;28;19921;-78
2023/03/06 08:05:34;;;;;;;;;;;;;;;27.94;15.44;98420.72;4998876;28;20350;-81
2023/03/06 08:07:59;;;;;;;;;;;;;;;27.56;15.94;98427.41;5014800;28;19917;-80
2023/03/06 08:10:25;;;;;;;;;;;;;;;27.66;16.02;98434.84;4999456;28;19999;-79
2023/03/06 08:12:50;;;;;;;;;;;;;;;27.92;16.04;98430.03;5033107;28;19939;-78
2023/03/06 08:15:15;;;;;;;;;;;;;;;28.05;15.87;98423.59;4998736;28;19917;-78
2023/03/06 08:17:40;;;;;;;;;;;;;;;28.06;16.02;98428.72;4999237;28;19956;-79
2023/03/06 08:20:06;;;;;;;;;;;;;;;27.75;16.15;98436.13;4998830;28;20035;-79
2023/03/06 08:22:32;;;;;;;;;;;;;;;28.06;16.02;98427.91;4998536;28;19917;-79
2023/03/06 08:24:57;;;;;;;;;;;;;;;28.27;16.22;98429.09;4998780;28;19995;-79
2023/03/06 08:27:23;;;;;;;;;;;;;;;28.27;16.52;98431.78;5014904;28;19968;-79
2023/03/06 08:29:48;;;;;;;;;;;;;;;28.14;16.24;98432.91;4998422;28;20300;-80
2023/03/06 08:32:13;;;;;;;;;;;;;;;28.37;16.10;98429.31;5032710;28;19939;-79
2023/03/06 08:34:40;;;;;;;;;;;;;;;28.49;15.96;98432.72;5032411;28;20391;-78
2023/03/06 08:37:05;;;;;;;;;;;;;;;28.61;15.87;98431.91;5014430;28;19918;-79
2023/03/06 08:39:30;;;;;;;;;;;;;;;28.77;15.88;98433.78;5032637;28;20346;-78
2023/03/06 08:41:55;;;;;;;;;;;;;;;28.79;16.08;98431.66;5014671;28;19975;-78
2023/03/06 08:44:21;;;;;;;;;;;;;;;28.86;15.80;98434.19;5032408;28;19917;-78
2023/03/06 08:46:46;;;;;;;;;;;;;;;28.94;15.75;98432.97;5035838;28;19921;-79
2023/03/06 08:49:12;;;;;;;;;;;;;;;28.78;15.57;98435.44;5018265;28;20368;-79
2023/03/06 08:51:37;;;;;;;;;;;;;;;28.76;15.68;98426.78;5002020;28;20399;-78
2023/03/06 08:54:02;;;;;;;;;;;;;;;28.84;15.92;98433.63;5018867;28;19917;-80
2023/03/06 08:56:28;;;;;;;;;;;;;;;28.86;15.64;98432.34;5001769;28;19917;-77
2023/03/06 08:58:54;;;;;;;;;;;;;;;28.86;15.79;98428.81;5001691;28;19917;-78
2023/03/06 09:01:27;;;;;;;;;;;;;;;28.80;15.56;98432.50;5001743;28;20368;-78
2023/03/06 09:03:52;;;;;;;;;;;;;;;28.91;15.61;98428.91;5001503;28;19917;-78
2023/03/06 09:06:18;;;;;;;;;;;;;;;28.79;14.80;98433.53;5001441;28;20019;-78
2023/03/06 09:08:43;;;;;;;;;;;;;;;28.68;15.29;98428.00;5001372;28;19917;-78
2023/03/06 09:11:12;;;;;;;;;;;;;;;28.74;15.52;98428.09;5017895;28;19917;-79
2023/03/06 09:13:38;;;;;;;;;;;;;;;28.91;15.41;98426.22;5001439;28;19917;-78
2023/03/06 09:16:03;;;;;;;;;;;;;;;29.09;15.34;98425.16;5000490;28;20027;-78
2023/03/06 09:18:28;;;;;;;;;;;;;;;29.29;14.81;98421.16;5001444;28;19990;-77
2023/03/06 09:20:54;;;;;;;;;;;;;;;28.67;14.94;98418.31;5000656;28;19917;-78
2023/03/06 09:23:20;;;;;;;;;;;;;;;28.91;14.89;98426.22;5001084;28;20372;-79
2023/03/06 09:25:50;;;;;;;;;;;;;;;29.10;14.97;98429.47;5017812;28;20376;-79
2023/03/06 09:28:16;;;;;;;;;;;;;;;29.11;14.84;98422.22;5000765;28;19940;-78
2023/03/06 09:30:42;;;;;;;;;;;;;;;29.25;15.14;98420.84;5001028;28;19967;-79
2023/03/06 09:33:07;;;;;;;;;;;;;;;29.30;15.24;98415.53;5017006;28;19995;-79
2023/03/06 09:35:32;;;;;;;;;;;;;;;29.27;15.33;98412.53;5001289;28;19917;-78
2023/03/06 09:37:57;;;;;;;;;;;;;;;29.23;15.13;98407.66;5018222;28;19917;-77
2023/03/06 09:40:41;;;;;;;;;;;;;;;29.19;14.88;98408.41;5035203;28;19917;-79
2023/03/06 09:43:09;;;;;;;;;;;;;;;28.62;15.43;98407.50;5035194;28;20174;-79
2023/03/06 09:45:35;;;;;;;;;;;;;;;27.81;15.34;98412.91;5001016;28;19917;-80
2023/03/06 09:48:02;;;;;;;;;;;;;;;27.96;15.83;98415.94;5017495;28;19917;-79
2023/03/06 09:50:28;;;;;;;;;;;;;;;28.04;15.81;98406.69;5000735;28;20380;-78
2023/03/06 09:53:15;;;;;;;;;;;;;;;28.01;15.98;98404.47;5016830;28;19924;-79
2023/03/06 09:55:43;;;;;;;;;;;;;;;27.74;15.87;98407.69;5034584;28;19983;-79
2023/03/06 09:58:11;;;;;;;;;;;;;;;27.71;15.98;98410.81;5000271;28;19960;-77
2023/03/06 10:00:40;;;;;;;;;;;;;;;27.67;15.89;98400.81;5034582;28;19917;-79
2023/03/06 10:03:24;;;;;;;;;;;;;;;27.75;16.12;98406.63;5000650;28;20425;-77
2023/03/06 10:05:54;;;;;;;;;;;;;;;27.87;16.14;98395.06;5034409;28;19923;-79
2023/03/06 10:08:42;;;;;;;;;;;;;;;27.51;15.68;98397.78;5000191;28;19917;-79
2023/03/06 10:11:09;;;;;;;;;;;;;;;27.22;16.81;98395.00;4938142;29;19919;-79
2023/03/06 10:13:34;;;;;;;;;;;;;;;27.23;16.24;98388.59;4938268;29;19925;-81
2023/03/06 10:16:05;;;;;;;;;;;;;;;27.19;16.48;98392.78;4938162;29;20013;-80
2023/03/06 10:18:30;;;;;;;;;;;;;;;27.13;16.12;98387.56;4937926;29;19993;-82
2023/03/06 10:21:01;;;;;;;;;;;;;;;27.08;16.78;98391.75;4921668;29;20418;-78
2023/03/06 10:23:26;;;;;;;;;;;;;;;27.30;16.59;98390.34;4938782;29;19918;-80
2023/03/06 10:25:57;;;;;;;;;;;;;;;27.23;16.43;98374.38;4938005;29;20005;-79
2023/03/06 10:28:34;;;;;;;;;;;;;;;27.14;16.81;98375.81;4937774;29;20422;-80
2023/03/06 10:31:02;;;;;;;;;;;;;;;27.17;16.52;98368.09;4938207;29;19923;-78
2023/03/06 10:33:31;;;;;;;;;;;;;;;27.18;16.83;98358.19;4953869;29;19926;-78
2023/03/06 10:35:56;;;;;;;;;;;;;;;27.10;16.59;98355.88;4937589;29;19919;-79
2023/03/06 10:38:25;;;;;;;;;;;;;;;26.80;16.76;98356.81;4921981;29;20018;-78
2023/03/06 10:40:54;;;;;;;;;;;;;;;26.31;16.25;98348.88;4938076;29;19922;-78
2023/03/06 10:43:20;;;;;;;;;;;;;;;26.22;17.17;98358.28;4953905;29;20440;-79
2023/03/06 10:45:49;;;;;;;;;;;;;;;26.03;17.10;98346.81;4937424;29;19919;-78
2023/03/06 10:48:16;;;;;;;;;;;;;;;26.01;17.25;98339.00;4981508;28;19917;-80
2023/03/06 10:50:41;;;;;;;;;;;;;;;25.44;17.29;98345.47;4999725;28;19975;-80
2023/03/06 10:53:10;;;;;;;;;;;;;;;25.21;17.84;98340.75;4999731;28;19925;-80
2023/03/06 10:55:35;;;;;;;;;;;;;;;24.89;17.97;98338.19;4999920;28;20415;-79
2023/03/06 10:58:36;;;;;;;;;;;;;;;24.79;18.00;98332.50;4999806;28;20004;-78
2023/03/06 11:01:05;;;;;;;;;;;;;;;24.71;18.26;98322.94;4954035;29;19925;-79
2023/03/06 11:03:31;;;;;;;;;;;;;;;24.44;18.23;98327.63;4953523;29;19919;-78
2023/03/06 11:06:00;;;;;;;;;;;;;;;24.11;18.51;98314.53;4937373;29;20437;-78
2023/03/06 11:08:26;;;;;;;;;;;;;;;23.97;18.64;98313.78;4936375;29;19926;-79
2023/03/06 11:11:14;;;;;;;;;;;;;;;23.89;18.73;98316.72;4937454;29;19919;-78
2023/03/06 11:13:40;;;;;;;;;;;;;;;23.72;18.70;98319.84;4880563;29;19930;-79
2023/03/06 11:16:06;;;;;;;;;;;;;;;23.48;19.02;98305.38;4880575;29;20048;-80
2023/03/06 11:18:41;;;;;;;;;;;;;;;23.23;18.85;98294.63;4895862;29;20387;-79
2023/03/06 11:21:25;;;;;;;;;;;;;;;22.65;19.15;98303.31;4880510;29;19994;-78
2023/03/06 11:23:50;;;;;;;;;;;;;;;22.15;20.23;98307.13;4895760;29;20383;-80
2023/03/06 11:26:16;;;;;;;;;;;;;;;21.66;20.26;98305.56;4895833;29;19920;-79
2023/03/06 11:28:48;;;;;;;;;;;;;;;21.42;20.81;98291.75;4895841;29;19963;-80
2023/03/06 11:31:24;;;;;;;;;;;;;;;21.52;21.08;98293.25;4880168;29;19926;-78
2023/03/06 11:33:53;;;;;;;;;;;;;;;21.65;21.46;98295.97;4896488;28;19990;-80
2023/03/06 11:36:25;;;;;;;;;;;;;;;21.73;21.40;98289.66;4939945;28;20021;-78
2023/03/06 11:38:51;;;;;;;;;;;;;;;21.60;21.19;98275.31;4939800;28;19918;-79
2023/03/06 11:41:19;;;;;;;;;;;;;;;21.49;20.86;98282.03;4956043;28;19973;-79
2023/03/06 11:43:48;;;;;;;;;;;;;;;21.00;20.62;98280.34;4972075;28;19925;-79
2023/03/06 11:46:32;;;;;;;;;;;;;;;20.52;21.75;98280.16;4939576;28;19918;-79
2023/03/06 11:49:15;;;;;;;;;;;;;;;20.56;21.92;98276.94;4955833;28;19922;-80
2023/03/06 11:51:42;;;;;;;;;;;;;;;20.57;21.96;98264.50;5010336;28;20341;-79
2023/03/06 11:54:07;;;;;;;;;;;;;;;20.55;21.93;98264.69;5015302;28;19928;-78
2023/03/06 11:56:35;;;;;;;;;;;;;;;20.46;22.26;98260.53;5015582;28;20286;-78
2023/03/06 11:59:07;;;;;;;;;;;;;;;20.43;22.54;98260.94;5015721;28;19924;-79
2023/03/06 12:01:34;;;;;;;;;;;;;;;20.34;22.54;98252.31;4998793;28;20403;-78
2023/03/06 12:03:59;;;;;;;;;;;;;;;20.40;22.72;98248.06;4998688;28;19932;-79
2023/03/06 12:06:37;;;;;;;;;;;;;;;20.24;22.82;98251.78;5015009;28;19917;-80
2023/03/06 12:09:11;;;;;;;;;;;;;;;20.25;23.26;98253.44;5014882;28;19917;-77
2023/03/06 12:11:45;;;;;;;;;;;;;;;20.20;23.08;98248.72;5014893;28;19974;-79
2023/03/06 12:14:10;;;;;;;;;;;;;;;20.13;23.32;98247.00;4998804;28;19921;-80
2023/03/06 12:16:54;;;;;;;;;;;;;;;19.98;23.49;98242.59;5014952;28;20293;-78
2023/03/06 12:19:52;;;;;;;;;;;;;;;19.85;23.39;98250.44;5015021;28;20027;-80
2023/03/06 12:22:35;;;;;;;;;;;;;;;19.56;23.99;98238.06;4956329;29;20453;-79
2023/03/06 12:25:04;;;;;;;;;;;;;;;19.52;24.13;98238.44;4956539;29;19926;-78
2023/03/06 12:27:29;;;;;;;;;;;;;;;19.51;24.19;98231.53;4939926;29;19919;-79
2023/03/06 12:30:13;;;;;;;;;;;;;;;19.53;24.29;98226.06;4956433;29;19918;-81
2023/03/06 12:32:56;;;;;;;;;;;;;;;19.50;24.45;98227.22;4940173;29;20310;-80
2023/03/06 12:35:30;;;;;;;;;;;;;;;19.43;24.38;98217.56;4939724;29;19922;-77
2023/03/06 12:38:02;;;;;;;;;;;;;;;19.15;24.42;98215.63;4955969;29;19919;-78
2023/03/06 12:40:38;;;;;;;;;;;;;;;19.11;24.76;98206.41;4939657;29;19926;-80
2023/03/06 12:43:08;;;;;;;;;;;;;;;18.96;24.64;98201.13;4924274;29;19923;-79
2023/03/06 12:45:34;;;;;;;;;;;;;;;18.78;25.29;98197.00;4955805;29;19926;-81
2023/03/06 12:47:59;;;;;;;;;;;;;;;18.79;25.21;98200.50;4939220;29;20299;-79
2023/03/06 12:50:27;;;;;;;;;;;;;;;18.85;25.69;98198.97;4939808;29;19922;-79